Time;durP1;ratioP1;P1;durP2;ratioP2;P2;SDS_P1;SDS_P2;PMS_P1;PMS_P2;Temp;Humidity;BMP_temperature;BMP_pressure;BME280_temperature;BME280_humidity;BME280_pressure;Samples;Min_cycle;Max_cycle;Signal;HPM_P1;HPM_P2
2023/04/19 00:02:01;;;;;;;25.48;20.38;;;;;;;9.56;92.81;100164.63;5032212;28;20184;-76
2023/04/19 00:04:26;;;;;;;25.73;19.77;;;;;;;9.56;92.37;100162.88;5032119;28;20026;-76
2023/04/19 00:06:52;;;;;;;26.10;20.33;;;;;;;9.65;92.41;100187.72;5031823;28;20026;-76
2023/04/19 00:09:18;;;;;;;24.83;19.13;;;;;;;9.64;92.56;100171.28;5032178;28;20025;-76
2023/04/19 00:11:43;;;;;;;25.92;19.70;;;;;;;9.59;92.27;100178.38;5030667;28;20030;-76
2023/04/19 00:14:08;;;;;;;26.17;19.92;;;;;;;9.52;92.72;100171.69;5032550;28;20025;-76
2023/04/19 00:16:34;;;;;;;24.63;19.48;;;;;;;9.60;93.07;100172.28;5032292;28;20105;-76
2023/04/19 00:19:00;;;;;;;24.60;18.70;;;;;;;9.53;92.95;100159.56;5032000;28;20108;-76
2023/04/19 00:21:26;;;;;;;25.77;20.92;;;;;;;9.49;92.75;100130.22;5032129;28;20250;-75
2023/04/19 00:23:52;;;;;;;23.85;19.73;;;;;;;9.57;92.66;100164.59;5031857;28;20078;-76
2023/04/19 00:26:18;;;;;;;26.13;19.98;;;;;;;9.53;92.65;100136.16;5031891;28;20533;-78
2023/04/19 00:28:43;;;;;;;25.48;20.98;;;;;;;9.70;92.35;100160.66;5031534;28;20025;-78
2023/04/19 00:31:09;;;;;;;23.17;18.92;;;;;;;9.60;92.79;100151.47;5032027;28;20073;-78
2023/04/19 00:33:34;;;;;;;23.10;18.85;;;;;;;9.49;92.76;100123.25;5031881;28;20029;-78
2023/04/19 00:35:59;;;;;;;26.52;20.02;;;;;;;9.71;92.25;100140.72;5031641;28;20112;-75
2023/04/19 00:38:25;;;;;;;23.38;18.80;;;;;;;9.68;91.78;100149.47;5031825;28;20030;-76
2023/04/19 00:40:50;;;;;;;23.10;18.35;;;;;;;9.59;90.71;100148.94;5031560;28;20068;-76
2023/04/19 00:43:19;;;;;;;19.67;16.00;;;;;;;9.25;89.34;100111.94;5031678;28;20022;-75
2023/04/19 00:45:46;;;;;;;22.15;17.30;;;;;;;9.48;88.84;100144.09;5030398;28;20033;-76
2023/04/19 00:48:13;;;;;;;18.75;15.13;;;;;;;9.24;87.76;100118.03;5031798;28;20026;-76
2023/04/19 00:50:39;;;;;;;22.70;15.48;;;;;;;9.17;87.33;100113.94;5031809;28;20485;-76
2023/04/19 00:53:06;;;;;;;24.25;16.50;;;;;;;9.27;87.03;100103.22;5032108;28;20025;-76
2023/04/19 00:55:32;;;;;;;20.13;15.75;;;;;;;9.28;86.57;100118.78;5035722;28;20085;-76
2023/04/19 00:57:58;;;;;;;20.20;15.25;;;;;;;9.29;86.49;100104.88;5035595;28;20063;-76
2023/04/19 01:00:23;;;;;;;19.33;15.73;;;;;;;9.43;86.31;100094.84;5036003;28;20047;-76
2023/04/19 01:02:49;;;;;;;19.92;15.05;;;;;;;9.59;86.48;100121.19;5035445;28;20018;-76
2023/04/19 01:05:15;;;;;;;20.15;15.18;;;;;;;9.33;87.28;100118.63;5035478;28;20036;-76
2023/04/19 01:07:41;;;;;;;20.20;16.25;;;;;;;9.48;87.30;100112.88;5035442;28;20060;-76
2023/04/19 01:10:07;;;;;;;20.25;15.38;;;;;;;9.31;87.07;100113.47;5035404;28;20025;-76
2023/04/19 01:12:32;;;;;;;24.10;16.13;;;;;;;9.11;87.25;100097.72;5035524;28;20018;-78
2023/04/19 01:14:57;;;;;;;21.90;15.35;;;;;;;9.34;87.64;100104.72;5035251;28;20045;-76
2023/04/19 01:17:24;;;;;;;18.60;15.77;;;;;;;9.42;87.66;100102.72;5035248;28;20065;-75
2023/04/19 01:19:58;;;;;;;21.17;16.20;;;;;;;9.32;87.27;100076.19;5035385;28;20036;-76
2023/04/19 01:22:23;;;;;;;21.33;16.27;;;;;;;9.21;87.36;100073.09;5035428;28;20087;-76
2023/04/19 01:24:48;;;;;;;23.15;16.70;;;;;;;9.27;87.36;100093.72;5034862;28;20445;-76
2023/04/19 01:27:15;;;;;;;19.38;15.68;;;;;;;8.99;87.24;100073.00;5034937;28;20494;-76
2023/04/19 01:29:40;;;;;;;19.80;14.43;;;;;;;9.06;86.97;100087.47;5035268;28;20029;-75
2023/04/19 01:32:06;;;;;;;19.27;14.75;;;;;;;8.80;85.70;100077.91;5034791;28;20677;-75
2023/04/19 01:34:31;;;;;;;18.13;14.05;;;;;;;8.85;85.16;100068.25;5035493;28;20465;-76
2023/04/19 01:36:56;;;;;;;16.40;13.38;;;;;;;9.00;83.11;100077.28;5054591;28;20046;-75
2023/04/19 01:39:22;;;;;;;15.60;12.63;;;;;;;8.89;81.30;100063.78;5054740;28;20036;-76
2023/04/19 01:41:47;;;;;;;16.10;12.32;;;;;;;8.91;80.39;100080.19;5054992;28;20036;-78
2023/04/19 01:44:13;;;;;;;19.38;12.07;;;;;;;8.66;80.08;100073.19;5054838;28;20104;-78
2023/04/19 01:46:41;;;;;;;14.93;10.65;;;;;;;8.44;79.74;100057.44;5054757;28;20457;-78
2023/04/19 01:49:06;;;;;;;16.50;10.45;;;;;;;8.41;78.00;100082.63;5054429;28;20469;-78
2023/04/19 01:51:32;;;;;;;15.13;10.35;;;;;;;8.24;78.36;100044.19;5054863;28;20074;-78
2023/04/19 01:53:57;;;;;;;13.98;9.98;;;;;;;8.28;77.23;100084.72;5054506;28;20025;-78
2023/04/19 01:56:22;;;;;;;13.00;8.98;;;;;;;8.11;77.37;100051.50;5054705;28;20028;-76
2023/04/19 01:58:48;;;;;;;14.82;9.80;;;;;;;8.03;77.03;100035.31;5054367;28;20025;-75
2023/04/19 02:01:13;;;;;;;14.30;9.23;;;;;;;8.19;76.56;100074.63;5054324;28;20167;-78
2023/04/19 02:03:39;;;;;;;14.23;9.98;;;;;;;8.21;77.75;100071.06;5053952;28;20467;-78
2023/04/19 02:06:04;;;;;;;16.40;11.40;;;;;;;8.34;78.12;100066.34;5053969;28;20055;-78
2023/04/19 02:08:30;;;;;;;15.73;10.23;;;;;;;8.29;78.00;100047.50;5054138;28;20575;-78
2023/04/19 02:10:55;;;;;;;13.65;10.02;;;;;;;8.34;78.22;100048.19;5053899;28;20029;-78
2023/04/19 02:13:21;;;;;;;14.15;11.00;;;;;;;8.54;78.62;100063.19;5054232;28;20114;-78
2023/04/19 02:15:46;;;;;;;15.48;10.52;;;;;;;8.24;78.83;100036.41;5054075;28;20029;-78
2023/04/19 02:18:12;;;;;;;15.50;11.40;;;;;;;8.40;78.55;100070.56;5054201;28;20487;-78
2023/04/19 02:20:37;;;;;;;14.48;10.90;;;;;;;8.20;78.51;100053.81;5054055;28;20029;-78
2023/04/19 02:23:03;;;;;;;12.15;9.88;;;;;;;8.22;78.16;100048.59;5053720;28;20024;-78
2023/04/19 02:25:28;;;;;;;13.60;10.43;;;;;;;8.05;77.77;100053.41;5054131;28;20062;-78
2023/04/19 02:27:53;;;;;;;13.02;9.88;;;;;;;7.97;77.51;100033.75;5053921;28;20108;-78
2023/04/19 02:30:19;;;;;;;16.08;9.40;;;;;;;7.72;76.87;99988.72;5053967;28;20112;-78
2023/04/19 02:32:47;;;;;;;13.52;8.48;;;;;;;8.14;76.45;100063.53;5053532;28;20049;-78
2023/04/19 02:35:12;;;;;;;12.60;8.90;;;;;;;7.79;75.64;100017.88;5053766;28;20013;-76
2023/04/19 02:37:37;;;;;;;15.18;9.48;;;;;;;7.74;75.90;100012.84;5053623;28;20440;-75
2023/04/19 02:40:04;;;;;;;17.70;8.68;;;;;;;7.86;75.38;100045.34;5053445;28;20476;-75
2023/04/19 02:42:29;;;;;;;12.57;8.55;;;;;;;7.83;75.23;100019.50;5053905;28;20032;-75
2023/04/19 02:44:55;;;;;;;9.73;7.65;;;;;;;7.90;74.59;100042.63;5053580;28;20021;-75
2023/04/19 02:47:20;;;;;;;14.70;7.68;;;;;;;7.84;74.68;100044.56;5053629;28;20035;-75
2023/04/19 02:49:46;;;;;;;13.35;8.75;;;;;;;7.69;74.50;100025.09;5053556;28;20036;-76
2023/04/19 02:52:11;;;;;;;11.02;7.43;;;;;;;7.68;74.11;100049.31;5053260;28;20040;-76
2023/04/19 02:54:36;;;;;;;10.52;7.22;;;;;;;7.60;74.04;100044.34;5053588;28;20020;-75
2023/04/19 02:57:01;;;;;;;13.70;7.75;;;;;;;7.58;74.17;100038.34;5053602;28;20033;-75
2023/04/19 02:59:27;;;;;;;12.98;7.75;;;;;;;7.36;74.47;100032.91;5053445;28;20017;-75
2023/04/19 03:01:52;;;;;;;10.50;6.82;;;;;;;7.26;77.33;100013.34;5053106;28;20025;-75
2023/04/19 03:04:17;;;;;;;11.75;6.57;;;;;;;7.16;77.47;100011.88;5053253;28;20021;-75
2023/04/19 03:06:43;;;;;;;10.73;6.88;;;;;;;7.16;78.08;100009.28;5053060;28;20032;-75
2023/04/19 03:09:09;;;;;;;12.93;7.60;;;;;;;7.13;77.78;100030.09;5052845;28;20025;-75
2023/04/19 03:11:35;;;;;;;12.70;7.13;;;;;;;6.97;77.31;100016.69;5053221;28;20029;-75
2023/04/19 03:14:01;;;;;;;8.52;6.30;;;;;;;7.03;77.92;100029.47;5051589;28;20032;-75
2023/04/19 03:16:29;;;;;;;10.77;6.90;;;;;;;7.08;77.49;100021.56;5051982;28;20028;-75
2023/04/19 03:18:54;;;;;;;9.13;6.55;;;;;;;6.97;76.34;100019.28;5052711;28;20021;-76
2023/04/19 03:21:20;;;;;;;8.63;6.38;;;;;;;7.06;76.39;100011.28;5052897;28;20464;-75
2023/04/19 03:23:45;;;;;;;8.93;5.88;;;;;;;7.14;75.61;100022.28;5052720;28;20025;-75
2023/04/19 03:26:10;;;;;;;7.32;5.95;;;;;;;6.99;74.69;100007.13;5052717;28;20376;-75
2023/04/19 03:28:36;;;;;;;8.57;5.32;;;;;;;6.97;73.62;100027.06;5052549;28;20458;-75
2023/04/19 03:31:01;;;;;;;10.98;6.03;;;;;;;6.86;76.42;100032.50;5052380;28;20049;-75
2023/04/19 03:33:27;;;;;;;9.20;5.90;;;;;;;6.60;77.78;100006.41;5052738;28;20392;-75
2023/04/19 03:35:52;;;;;;;7.22;5.20;;;;;;;6.41;77.75;99998.25;5052282;28;20048;-75
2023/04/19 03:38:17;;;;;;;10.68;6.03;;;;;;;6.56;78.73;100025.50;5052769;28;20464;-75
2023/04/19 03:40:42;;;;;;;11.88;5.90;;;;;;;6.42;78.94;99994.78;5052966;28;20362;-75
2023/04/19 03:43:08;;;;;;;10.23;5.47;;;;;;;6.54;78.44;100022.97;5051091;28;20531;-75
2023/04/19 03:45:33;;;;;;;8.98;6.03;;;;;;;6.35;78.15;100000.97;5052388;28;20033;-76
2023/04/19 03:47:58;;;;;;;7.78;5.05;;;;;;;6.30;78.20;99998.50;5052311;28;20021;-75
2023/04/19 03:50:24;;;;;;;9.52;5.55;;;;;;;6.31;77.83;100026.06;5052301;28;20071;-75
2023/04/19 03:52:49;;;;;;;8.27;4.85;;;;;;;6.14;77.45;100008.34;5052262;28;20074;-75
2023/04/19 03:55:14;;;;;;;10.27;5.65;;;;;;;6.19;77.71;100001.34;5052214;28;20028;-75
2023/04/19 03:57:40;;;;;;;9.88;5.47;;;;;;;6.32;78.88;100017.44;5052426;28;20021;-76
2023/04/19 04:00:07;;;;;;;7.70;5.75;;;;;;;6.14;79.74;100023.88;5052162;28;20472;-78
2023/04/19 04:02:32;;;;;;;8.50;5.82;;;;;;;6.12;81.14;100030.81;5052411;28;20097;-78
2023/04/19 04:04:57;;;;;;;10.93;5.32;;;;;;;5.85;84.26;100024.47;5052048;28;20037;-79
2023/04/19 04:07:23;;;;;;;8.52;6.03;;;;;;;5.69;85.55;100018.78;5051925;28;20388;-79
2023/04/19 04:09:49;;;;;;;11.10;5.75;;;;;;;5.81;86.58;100029.72;5052146;28;20453;-79
2023/04/19 04:12:15;;;;;;;10.27;6.50;;;;;;;5.70;87.02;100015.31;5051888;28;20029;-78
2023/04/19 04:14:40;;;;;;;9.35;6.07;;;;;;;5.77;86.67;100008.28;5051888;28;20021;-79
2023/04/19 04:17:05;;;;;;;8.07;5.80;;;;;;;5.61;86.66;99994.00;5051776;28;20033;-79
2023/04/19 04:19:31;;;;;;;10.10;6.22;;;;;;;5.82;87.20;100009.03;5051834;28;20366;-78
2023/04/19 04:21:56;;;;;;;9.48;6.65;;;;;;;5.72;86.94;99990.28;5051513;28;20025;-79
2023/04/19 04:24:21;;;;;;;11.43;6.45;;;;;;;5.82;86.87;100018.53;5051824;28;20021;-79
2023/04/19 04:26:48;;;;;;;13.00;6.85;;;;;;;5.67;86.77;99992.13;5051511;28;20029;-79
2023/04/19 04:29:14;;;;;;;11.43;7.43;;;;;;;5.76;86.74;100016.91;5051754;28;20044;-79
2023/04/19 04:31:39;;;;;;;10.95;7.07;;;;;;;5.57;87.35;100002.69;5051977;28;20045;-79
2023/04/19 04:34:05;;;;;;;10.77;7.30;;;;;;;5.59;87.49;99991.44;5052004;28;20023;-78
2023/04/19 04:36:30;;;;;;;11.18;8.18;;;;;;;5.64;87.49;99994.75;5051562;28;20061;-78
2023/04/19 04:38:56;;;;;;;13.05;8.52;;;;;;;5.54;87.70;99967.41;5051900;28;20056;-78
2023/04/19 04:41:22;;;;;;;11.48;8.60;;;;;;;5.54;87.67;99992.41;5051850;28;20476;-79
2023/04/19 04:43:50;;;;;;;10.93;8.82;;;;;;;5.63;87.95;100010.31;5051797;28;20040;-78
2023/04/19 04:46:16;;;;;;;12.23;7.80;;;;;;;5.70;88.32;100017.06;5051453;28;20029;-79
2023/04/19 04:48:41;;;;;;;12.70;8.23;;;;;;;5.63;88.54;99998.22;5051548;28;20021;-79
2023/04/19 04:51:06;;;;;;;13.52;7.45;;;;;;;5.62;88.47;100024.13;5051353;28;20051;-79
2023/04/19 04:53:31;;;;;;;9.07;6.93;;;;;;;5.46;88.24;100014.06;5051542;28;20021;-78
2023/04/19 04:55:57;;;;;;;12.70;7.05;;;;;;;5.31;88.65;100008.34;5051633;28;20033;-79
2023/04/19 04:58:22;;;;;;;12.60;7.68;;;;;;;5.42;89.54;100029.66;5051688;28;20392;-78
2023/04/19 05:00:47;;;;;;;11.43;7.53;;;;;;;5.48;89.87;100025.25;5051582;28;20021;-78
2023/04/19 05:03:13;;;;;;;16.33;7.60;;;;;;;5.50;89.17;100022.63;5051321;28;20029;-78
2023/04/19 05:05:39;;;;;;;9.82;8.07;;;;;;;5.50;89.18;100005.38;5051434;28;20474;-78
2023/04/19 05:08:05;;;;;;;14.02;7.65;;;;;;;5.58;89.05;100018.16;5051160;28;20461;-79
2023/04/19 05:10:30;;;;;;;12.60;8.00;;;;;;;5.70;88.84;100027.41;5051624;28;20064;-79
2023/04/19 05:12:55;;;;;;;12.68;8.57;;;;;;;5.80;88.16;100010.78;5051973;28;20064;-78
2023/04/19 05:15:21;;;;;;;10.75;7.57;;;;;;;6.22;87.65;99995.25;5051323;28;20060;-78
2023/04/19 05:17:46;;;;;;;11.90;7.90;;;;;;;7.18;85.31;100005.75;5051463;28;20113;-79
2023/04/19 05:20:12;;;;;;;10.52;7.78;;;;;;;8.55;80.12;99989.59;5051059;28;20082;-79
2023/04/19 05:22:38;;;;;;;13.13;7.35;;;;;;;9.47;74.52;99999.41;5051765;28;20079;-79
2023/04/19 05:25:04;;;;;;;11.50;8.10;;;;;;;9.86;74.38;99996.22;5051223;28;20071;-79
2023/04/19 05:27:29;;;;;;;14.65;6.90;;;;;;;9.74;71.65;99997.53;5051316;28;20362;-79
2023/04/19 05:29:54;;;;;;;10.63;7.53;;;;;;;9.07;71.69;99987.84;5051192;28;20040;-79
2023/04/19 05:32:20;;;;;;;10.63;6.30;;;;;;;9.24;71.36;99993.28;5050880;28;20045;-79
2023/04/19 05:34:45;;;;;;;8.68;6.60;;;;;;;9.34;70.85;100004.19;5051131;28;20028;-80
2023/04/19 05:37:10;;;;;;;9.80;6.38;;;;;;;10.14;68.98;99983.00;5050753;28;20036;-80
2023/04/19 05:39:36;;;;;;;9.10;5.65;;;;;;;10.44;65.07;99973.97;5052424;28;20056;-80
2023/04/19 05:42:01;;;;;;;9.90;6.93;;;;;;;11.17;63.37;100001.31;5054633;28;20111;-80
2023/04/19 05:44:27;;;;;;;15.25;9.65;;;;;;;12.02;62.74;99990.56;5054648;28;20032;-80
2023/04/19 05:46:52;;;;;;;11.38;7.55;;;;;;;10.97;62.24;99963.06;5054511;28;20039;-80
2023/04/19 05:49:17;;;;;;;6.80;5.38;;;;;;;10.59;62.80;99974.28;5054395;28;20111;-80
2023/04/19 05:51:43;;;;;;;9.55;6.43;;;;;;;9.92;64.33;99970.81;5054532;28;20404;-80
2023/04/19 05:54:11;;;;;;;8.45;6.50;;;;;;;11.09;65.02;99971.28;5054338;28;20377;-80
2023/04/19 05:56:37;;;;;;;9.93;6.35;;;;;;;11.95;60.91;99982.16;5054517;28;20471;-80
2023/04/19 05:59:02;;;;;;;8.88;6.20;;;;;;;11.64;60.10;99974.03;5054247;28;20108;-80
2023/04/19 06:01:27;;;;;;;9.63;6.75;;;;;;;11.88;59.51;99987.72;5054402;28;20461;-80
2023/04/19 06:03:53;;;;;;;14.77;7.72;;;;;;;11.35;60.54;99983.16;5054373;28;20357;-80
2023/04/19 06:06:21;;;;;;;8.45;6.45;;;;;;;11.04;62.08;99976.69;5053973;28;20033;-80
2023/04/19 06:08:46;;;;;;;11.63;6.47;;;;;;;10.49;62.90;99982.47;5054356;28;20496;-79
2023/04/19 06:11:12;;;;;;;12.35;6.53;;;;;;;11.36;61.81;99966.59;5054079;28;20028;-79
2023/04/19 06:13:37;;;;;;;8.88;5.53;;;;;;;12.12;59.71;99967.44;5054267;28;20068;-80
2023/04/19 06:16:03;;;;;;;12.35;6.72;;;;;;;12.03;59.27;99953.06;5053951;28;20025;-80
2023/04/19 06:18:28;;;;;;;9.98;6.82;;;;;;;12.18;59.76;99975.00;5054117;28;20032;-80
2023/04/19 06:20:54;;;;;;;10.95;6.85;;;;;;;12.40;59.89;99922.56;5054233;28;20087;-80
2023/04/19 06:23:19;;;;;;;11.07;5.88;;;;;;;12.91;59.15;99960.91;5053917;28;20025;-80
2023/04/19 06:25:47;;;;;;;8.70;5.85;;;;;;;13.77;57.07;99973.84;5053893;28;20051;-80
2023/04/19 06:28:13;;;;;;;8.73;6.10;;;;;;;14.44;54.99;99951.72;5054067;28;20087;-80
2023/04/19 06:30:38;;;;;;;9.55;5.90;;;;;;;14.59;54.39;99956.13;5053829;28;20049;-80
2023/04/19 06:33:03;;;;;;;29.73;16.80;;;;;;;14.88;53.83;99957.03;5053597;28;20108;-80
2023/04/19 06:35:29;;;;;;;18.55;10.05;;;;;;;15.35;53.35;99957.72;5053727;28;20032;-80
2023/04/19 06:37:54;;;;;;;14.15;8.60;;;;;;;15.31;52.62;99971.97;5053783;28;20029;-80
2023/04/19 06:40:19;;;;;;;8.52;6.38;;;;;;;15.51;51.73;99949.75;5053594;28;20377;-80
2023/04/19 06:42:45;;;;;;;11.07;7.57;;;;;;;16.80;49.91;99974.69;5053685;28;20389;-80
2023/04/19 06:45:10;;;;;;;10.10;7.97;;;;;;;17.19;48.26;99952.72;5053356;28;20040;-80
2023/04/19 06:47:36;;;;;;;9.15;6.55;;;;;;;17.48;48.67;99949.81;5053484;28;20472;-80
2023/04/19 06:50:01;;;;;;;6.85;5.32;;;;;;;18.25;47.80;99941.72;5053225;28;20059;-80
2023/04/19 06:52:27;;;;;;;10.82;7.43;;;;;;;16.96;47.81;99959.56;5053603;28;20040;-78
2023/04/19 06:54:53;;;;;;;9.45;6.47;;;;;;;17.82;46.77;99963.25;5053523;28;20158;-79
2023/04/19 06:57:18;;;;;;;8.23;6.13;;;;;;;18.12;46.29;99950.53;5053183;28;20040;-78
2023/04/19 06:59:44;;;;;;;8.75;6.43;;;;;;;19.40;44.74;99942.56;5053330;28;20060;-78
2023/04/19 07:02:09;;;;;;;9.20;6.80;;;;;;;22.03;41.92;99942.59;5053059;28;20025;-78
2023/04/19 07:04:35;;;;;;;10.30;7.57;;;;;;;22.59;39.18;99964.03;5053047;28;20021;-78
2023/04/19 07:07:01;;;;;;;8.95;6.65;;;;;;;23.26;39.87;99954.28;5053149;28;20416;-78
2023/04/19 07:09:27;;;;;;;7.88;5.85;;;;;;;24.64;38.53;99943.47;5052619;28;20027;-79
2023/04/19 07:11:52;;;;;;;8.57;6.40;;;;;;;23.47;38.88;99969.16;5053031;28;20067;-78
2023/04/19 07:14:18;;;;;;;11.77;6.93;;;;;;;21.87;40.44;99967.88;5052871;28;20021;-78
2023/04/19 07:16:44;;;;;;;8.27;6.18;;;;;;;20.29;42.64;99964.53;5052974;28;20047;-78
2023/04/19 07:19:10;;;;;;;9.52;6.70;;;;;;;18.35;44.64;99953.25;5052502;28;20499;-78
2023/04/19 07:21:37;;;;;;;8.60;6.80;;;;;;;15.73;48.48;99971.13;5052799;28;20029;-77
2023/04/19 07:24:02;;;;;;;7.93;6.90;;;;;;;14.83;51.50;99951.22;5053021;28;20116;-77
2023/04/19 07:26:27;;;;;;;9.02;7.35;;;;;;;16.42;49.50;99967.53;5052581;28;20111;-77
2023/04/19 07:28:53;;;;;;;9.13;7.40;;;;;;;16.14;49.16;99947.47;5052739;28;20059;-77
2023/04/19 07:31:19;;;;;;;13.57;8.07;;;;;;;15.32;50.43;99945.63;5052394;28;20095;-77
2023/04/19 07:33:44;;;;;;;11.65;7.75;;;;;;;14.54;52.51;99963.41;5052534;28;20028;-77
2023/04/19 07:36:10;;;;;;;9.38;7.30;;;;;;;13.16;54.95;99973.53;5052187;28;20392;-78
2023/04/19 07:38:35;;;;;;;12.32;8.23;;;;;;;11.44;58.42;99943.63;5052638;28;20025;-77
2023/04/19 07:41:02;;;;;;;11.05;7.57;;;;;;;11.41;60.14;99988.09;5052642;28;20028;-77
2023/04/19 07:43:29;;;;;;;10.82;8.38;;;;;;;10.86;61.45;99983.50;5052240;28;20455;-77
2023/04/19 07:45:54;;;;;;;9.75;8.20;;;;;;;10.50;62.72;99970.28;5051611;28;20109;-77
2023/04/19 07:48:20;;;;;;;15.40;8.02;;;;;;;11.01;63.64;99974.22;5037337;28;20112;-77
2023/04/19 07:50:45;;;;;;;11.68;8.35;;;;;;;11.60;60.64;99936.78;5052513;28;20033;-77
2023/04/19 07:53:11;;;;;;;12.20;8.13;;;;;;;12.74;59.01;99953.91;5052244;28;20052;-77
2023/04/19 07:55:36;;;;;;;11.43;7.78;;;;;;;12.39;58.13;99937.41;5052387;28;20036;-77
2023/04/19 07:58:01;;;;;;;14.70;8.55;;;;;;;11.41;59.64;99933.31;5052259;28;20036;-77
2023/04/19 08:00:28;;;;;;;13.20;8.25;;;;;;;10.57;62.15;99976.91;5051905;28;20029;-77
2023/04/19 08:02:55;;;;;;;10.63;8.43;;;;;;;10.53;62.89;99946.69;5051545;28;20104;-77
2023/04/19 08:05:22;;;;;;;12.27;8.95;;;;;;;9.99;64.08;99976.66;5051974;28;20036;-77
2023/04/19 08:07:48;;;;;;;12.65;9.48;;;;;;;9.65;64.80;99948.44;5052099;28;20107;-77
2023/04/19 08:10:13;;;;;;;11.65;8.63;;;;;;;9.80;65.36;99965.25;5051758;28;20036;-77
2023/04/19 08:12:40;;;;;;;12.70;8.25;;;;;;;9.19;66.86;99978.78;5051894;28;20036;-77
2023/04/19 08:15:07;;;;;;;13.02;8.38;;;;;;;9.21;67.42;99962.19;5051934;28;20050;-77
2023/04/19 08:17:33;;;;;;;11.98;9.05;;;;;;;9.32;67.82;99976.56;5050922;28;20017;-77
2023/04/19 08:19:59;;;;;;;12.27;8.80;;;;;;;9.17;67.77;99958.00;5039743;28;20032;-77
2023/04/19 08:22:25;;;;;;;15.55;9.20;;;;;;;9.11;68.35;99973.00;5048528;28;20396;-77
2023/04/19 08:24:51;;;;;;;16.58;9.65;;;;;;;9.08;69.01;99968.75;5046159;28;20119;-77
2023/04/19 08:27:17;;;;;;;17.25;10.73;;;;;;;8.90;69.89;99969.41;5039033;28;20022;-77
2023/04/19 08:29:42;;;;;;;13.63;10.32;;;;;;;8.76;69.96;99977.63;5040708;28;20029;-77
2023/04/19 08:32:07;;;;;;;14.77;9.10;;;;;;;8.66;70.38;99960.69;5041052;28;20102;-77
2023/04/19 08:34:38;;;;;;;17.85;9.80;;;;;;;8.53;70.75;99949.84;5039363;28;20033;-77
2023/04/19 08:37:03;;;;;;;14.50;9.73;;;;;;;8.34;71.36;99978.13;5038190;28;20049;-77
2023/04/19 08:39:33;;;;;;;16.15;9.68;;;;;;;8.18;72.25;99944.06;5031596;28;20118;-77
2023/04/19 08:42:06;;;;;;;12.48;9.82;;;;;;;7.89;73.07;99955.34;5031757;28;20036;-77
2023/04/19 08:44:32;;;;;;;12.30;9.55;;;;;;;7.94;73.69;99957.78;5031458;28;20030;-77
2023/04/19 08:46:59;;;;;;;12.93;9.55;;;;;;;7.84;73.97;99943.41;5031718;28;20045;-77
2023/04/19 08:49:27;;;;;;;13.90;8.90;;;;;;;7.91;73.45;99958.72;5031556;28;20026;-77
2023/04/19 08:51:53;;;;;;;19.08;10.90;;;;;;;7.89;74.46;99946.72;5039719;28;20030;-77
2023/04/19 08:54:20;;;;;;;13.10;10.60;;;;;;;8.19;74.10;99968.25;5042213;28;20021;-77
2023/04/19 08:56:45;;;;;;;15.82;10.05;;;;;;;8.45;73.68;99937.13;5039347;28;20087;-77
2023/04/19 08:59:11;;;;;;;17.73;11.57;;;;;;;8.94;72.63;99963.19;5031213;28;20465;-77
2023/04/19 09:01:37;;;;;;;18.27;11.55;;;;;;;8.81;72.24;99949.78;5031868;28;20026;-77
2023/04/19 09:04:05;;;;;;;18.52;12.02;;;;;;;8.79;72.18;99953.31;5031851;28;20033;-78
2023/04/19 09:06:35;;;;;;;16.25;10.48;;;;;;;8.85;71.80;99961.75;5031497;28;20405;-78
2023/04/19 09:09:15;;;;;;;14.82;11.02;;;;;;;8.87;72.64;99949.56;5031829;28;20025;-78
2023/04/19 09:11:40;;;;;;;17.10;11.32;;;;;;;9.03;72.59;99946.44;5031491;28;20029;-77
2023/04/19 09:14:13;;;;;;;12.15;10.25;;;;;;;9.19;71.96;99944.97;5032577;28;20025;-78
2023/04/19 09:16:39;;;;;;;13.23;10.32;;;;;;;9.23;71.67;99915.38;5035449;28;20466;-78
2023/04/19 09:19:05;;;;;;;18.38;11.43;;;;;;;9.28;72.27;99923.00;5035309;28;20039;-78
2023/04/19 09:21:32;;;;;;;18.02;10.52;;;;;;;9.46;71.53;99936.16;5034951;28;20030;-78
2023/04/19 09:23:58;;;;;;;17.00;10.43;;;;;;;9.43;72.19;99919.81;5035503;28;20477;-78
2023/04/19 09:26:28;;;;;;;16.15;11.27;;;;;;;9.46;72.07;99909.31;5035052;28;20377;-77
2023/04/19 09:29:06;;;;;;;19.40;11.73;;;;;;;9.27;71.85;99914.38;5035310;28;20061;-77
2023/04/19 09:31:36;;;;;;;18.52;11.65;;;;;;;9.34;72.04;99907.16;5034899;28;20060;-78
2023/04/19 09:34:12;;;;;;;14.55;10.43;;;;;;;9.48;72.03;99933.47;5035041;28;20036;-78
2023/04/19 09:36:37;;;;;;;15.73;11.27;;;;;;;9.50;72.23;99931.69;5034624;28;20025;-78
2023/04/19 09:39:02;;;;;;;18.95;11.27;;;;;;;9.61;71.72;99945.16;5034853;28;20428;-78
2023/04/19 09:41:28;;;;;;;15.95;10.85;;;;;;;9.75;72.22;99918.59;5034964;28;20378;-78
2023/04/19 09:44:08;;;;;;;16.27;10.52;;;;;;;9.81;71.62;99922.69;5034740;28;20079;-78
2023/04/19 09:46:35;;;;;;;15.25;10.38;;;;;;;9.72;71.36;99919.56;5034550;28;20076;-78
2023/04/19 09:49:16;;;;;;;17.15;11.35;;;;;;;9.60;71.60;99933.03;5034495;28;20076;-78
2023/04/19 09:51:46;;;;;;;13.30;10.75;;;;;;;9.35;72.39;99934.84;5034746;28;20034;-78
2023/04/19 09:54:13;;;;;;;14.93;11.48;;;;;;;9.22;73.04;99913.66;5034597;28;20021;-78
2023/04/19 09:56:39;;;;;;;16.10;11.40;;;;;;;9.31;73.23;99915.91;5034682;28;20030;-78
2023/04/19 09:59:06;;;;;;;13.40;10.00;;;;;;;9.55;73.30;99934.97;5034581;28;20034;-78
2023/04/19 10:01:39;;;;;;;14.15;10.55;;;;;;;9.63;73.08;99929.47;5034649;28;20055;-78
2023/04/19 10:04:05;;;;;;;14.27;10.38;;;;;;;9.60;72.96;99912.22;5034566;28;20112;-78
2023/04/19 10:06:33;;;;;;;12.57;9.80;;;;;;;9.72;72.92;99929.97;5034109;28;20087;-78
2023/04/19 10:09:02;;;;;;;15.10;10.85;;;;;;;9.55;72.85;99900.31;5034360;28;20030;-78
2023/04/19 10:11:37;;;;;;;15.13;9.70;;;;;;;9.69;73.04;99922.28;5034182;28;20056;-78
2023/04/19 10:14:05;;;;;;;13.00;10.15;;;;;;;9.65;73.00;99920.72;5034220;28;20026;-78
2023/04/19 10:16:32;;;;;;;16.70;10.93;;;;;;;9.66;73.01;99925.00;5034189;28;20040;-78
2023/04/19 10:18:57;;;;;;;16.10;10.52;;;;;;;9.64;72.40;99919.00;5034406;28;20021;-78
2023/04/19 10:21:26;;;;;;;17.40;11.77;;;;;;;9.30;73.56;99909.03;5033969;28;20112;-78
2023/04/19 10:23:52;;;;;;;16.73;12.60;;;;;;;9.48;73.80;99923.09;5034150;28;20030;-78
2023/04/19 10:26:17;;;;;;;16.25;11.25;;;;;;;9.47;74.19;99908.41;5033326;28;20457;-78
2023/04/19 10:28:42;;;;;;;20.50;11.95;;;;;;;9.35;74.29;99903.66;5033782;28;20025;-78
2023/04/19 10:31:11;;;;;;;14.95;11.48;;;;;;;9.52;74.34;99923.81;5033994;28;20047;-78
2023/04/19 10:33:38;;;;;;;14.55;10.70;;;;;;;9.46;74.51;99901.50;5033706;28;20022;-78
2023/04/19 10:36:08;;;;;;;17.58;11.48;;;;;;;9.14;74.96;99926.09;5032464;28;20440;-78
2023/04/19 10:38:46;;;;;;;18.25;12.25;;;;;;;8.92;75.56;99898.28;5033529;28;20033;-78
2023/04/19 10:41:16;;;;;;;16.25;11.20;;;;;;;8.67;76.74;99924.25;5033702;28;20064;-78
2023/04/19 10:44:07;;;;;;;18.17;12.35;;;;;;;8.57;77.72;99927.25;5033817;28;20025;-78
2023/04/19 10:46:32;;;;;;;16.13;12.18;;;;;;;8.58;77.92;99931.53;5033425;28;20030;-78
2023/04/19 10:48:59;;;;;;;18.20;13.50;;;;;;;8.79;78.31;99922.16;5033485;28;20431;-78
2023/04/19 10:51:32;;;;;;;16.33;11.90;;;;;;;8.55;78.18;99908.25;5033490;28;20029;-78
2023/04/19 10:53:59;;;;;;;19.08;11.43;;;;;;;8.44;78.39;99908.63;5033704;28;20128;-78
2023/04/19 10:56:33;;;;;;;15.35;11.73;;;;;;;8.47;79.00;99918.94;5033471;28;20568;-78
2023/04/19 10:58:59;;;;;;;16.27;11.57;;;;;;;8.56;78.93;99929.00;5033369;28;20029;-78
2023/04/19 11:01:46;;;;;;;16.85;11.60;;;;;;;8.65;78.98;99913.09;5032956;28;20032;-78
2023/04/19 11:04:18;;;;;;;16.88;11.88;;;;;;;8.71;79.01;99912.88;5033224;28;20120;-78
2023/04/19 11:06:52;;;;;;;15.38;12.88;;;;;;;8.67;79.10;99924.25;5033255;28;20034;-78
2023/04/19 11:09:26;;;;;;;12.98;11.02;;;;;;;8.47;79.29;99898.16;5032968;28;20029;-78
2023/04/19 11:11:52;;;;;;;14.98;12.55;;;;;;;8.75;79.32;99926.59;5033099;28;20513;-78
2023/04/19 11:14:20;;;;;;;15.48;12.80;;;;;;;8.63;79.16;99878.53;5032985;28;20036;-78
2023/04/19 11:16:45;;;;;;;19.83;12.63;;;;;;;8.77;79.06;99904.03;5033266;28;20057;-78
2023/04/19 11:19:18;;;;;;;16.90;11.93;;;;;;;8.50;79.53;99898.03;5033024;28;20053;-78
2023/04/19 11:21:48;;;;;;;15.70;12.07;;;;;;;8.58;80.08;99919.41;5032918;28;20041;-78
2023/04/19 11:24:17;;;;;;;16.80;12.70;;;;;;;8.36;80.28;99897.63;5032987;28;20485;-78